sensor_id;sensor_type;location;lat;lon;timestamp;temperature;humidity
23089;DHT22;11713;48.506;8.966;2023-05-24T00:00:45;14.50;99.90
23089;DHT22;11713;48.506;8.966;2023-05-24T00:03:11;14.40;99.90
23089;DHT22;11713;48.506;8.966;2023-05-24T00:05:40;14.50;99.90
23089;DHT22;11713;48.506;8.966;2023-05-24T00:08:05;14.30;99.90
23089;DHT22;11713;48.506;8.966;2023-05-24T00:10:31;14.30;99.90
23089;DHT22;11713;48.506;8.966;2023-05-24T00:12:57;14.30;99.90
23089;DHT22;11713;48.506;8.966;2023-05-24T00:15:23;14.30;99.90
23089;DHT22;11713;48.506;8.966;2023-05-24T00:17:48;14.30;99.90
23089;DHT22;11713;48.506;8.966;2023-05-24T00:20:14;14.30;99.90
23089;DHT22;11713;48.506;8.966;2023-05-24T00:22:40;14.30;99.90
23089;DHT22;11713;48.506;8.966;2023-05-24T00:25:07;14.10;99.90
23089;DHT22;11713;48.506;8.966;2023-05-24T00:27:33;14.00;99.90
23089;DHT22;11713;48.506;8.966;2023-05-24T00:30:01;13.90;99.90
23089;DHT22;11713;48.506;8.966;2023-05-24T00:32:27;13.80;99.90
23089;DHT22;11713;48.506;8.966;2023-05-24T00:34:53;13.90;99.90
23089;DHT22;11713;48.506;8.966;2023-05-24T00:37:18;13.80;99.90
23089;DHT22;11713;48.506;8.966;2023-05-24T00:39:44;13.80;99.90
23089;DHT22;11713;48.506;8.966;2023-05-24T00:42:10;13.70;99.90
23089;DHT22;11713;48.506;8.966;2023-05-24T00:44:36;13.80;99.90
23089;DHT22;11713;48.506;8.966;2023-05-24T00:47:02;13.80;99.90
23089;DHT22;11713;48.506;8.966;2023-05-24T00:49:28;13.80;99.90
23089;DHT22;11713;48.506;8.966;2023-05-24T00:51:54;13.80;99.90
23089;DHT22;11713;48.506;8.966;2023-05-24T00:54:20;13.80;99.90
23089;DHT22;11713;48.506;8.966;2023-05-24T00:56:47;13.80;99.90
23089;DHT22;11713;48.506;8.966;2023-05-24T00:59:13;13.90;99.90
23089;DHT22;11713;48.506;8.966;2023-05-24T01:01:39;13.90;99.90
23089;DHT22;11713;48.506;8.966;2023-05-24T01:04:06;13.90;99.90
23089;DHT22;11713;48.506;8.966;2023-05-24T01:06:47;13.80;99.90
23089;DHT22;11713;48.506;8.966;2023-05-24T01:09:28;13.80;99.90
23089;DHT22;11713;48.506;8.966;2023-05-24T01:15:03;13.70;99.90
23089;DHT22;11713;48.506;8.966;2023-05-24T01:17:36;13.70;99.90
23089;DHT22;11713;48.506;8.966;2023-05-24T01:20:08;13.60;99.90
23089;DHT22;11713;48.506;8.966;2023-05-24T01:28:08;13.50;99.90
23089;DHT22;11713;48.506;8.966;2023-05-24T01:30:36;13.50;99.90
23089;DHT22;11713;48.506;8.966;2023-05-24T01:33:02;13.40;99.90
23089;DHT22;11713;48.506;8.966;2023-05-24T01:35:28;13.40;99.90
23089;DHT22;11713;48.506;8.966;2023-05-24T01:37:54;13.40;99.90
23089;DHT22;11713;48.506;8.966;2023-05-24T01:40:20;13.40;99.90
23089;DHT22;11713;48.506;8.966;2023-05-24T01:42:58;13.40;99.90
23089;DHT22;11713;48.506;8.966;2023-05-24T01:48:33;13.40;99.90
23089;DHT22;11713;48.506;8.966;2023-05-24T01:51:06;13.40;99.90
23089;DHT22;11713;48.506;8.966;2023-05-24T01:53:35;13.50;99.90
23089;DHT22;11713;48.506;8.966;2023-05-24T01:56:05;13.50;99.90
23089;DHT22;11713;48.506;8.966;2023-05-24T01:58:32;13.50;99.90
23089;DHT22;11713;48.506;8.966;2023-05-24T02:00:59;13.50;99.90
23089;DHT22;11713;48.506;8.966;2023-05-24T02:03:25;13.50;99.90
23089;DHT22;11713;48.506;8.966;2023-05-24T02:05:51;13.60;99.90
23089;DHT22;11713;48.506;8.966;2023-05-24T02:08:17;13.60;99.90
23089;DHT22;11713;48.506;8.966;2023-05-24T02:10:44;13.60;99.90
23089;DHT22;11713;48.506;8.966;2023-05-24T02:13:10;13.70;99.90
23089;DHT22;11713;48.506;8.966;2023-05-24T02:15:36;13.70;99.90
23089;DHT22;11713;48.506;8.966;2023-05-24T02:18:02;13.70;99.90
23089;DHT22;11713;48.506;8.966;2023-05-24T02:20:29;13.70;99.90
23089;DHT22;11713;48.506;8.966;2023-05-24T02:23:02;13.70;99.90
23089;DHT22;11713;48.506;8.966;2023-05-24T02:25:29;13.70;99.90
23089;DHT22;11713;48.506;8.966;2023-05-24T02:27:56;13.50;99.90
23089;DHT22;11713;48.506;8.966;2023-05-24T02:30:22;13.50;99.90
23089;DHT22;11713;48.506;8.966;2023-05-24T02:32:48;13.50;99.90
23089;DHT22;11713;48.506;8.966;2023-05-24T02:35:14;13.50;99.90
23089;DHT22;11713;48.506;8.966;2023-05-24T02:37:40;13.50;99.90
23089;DHT22;11713;48.506;8.966;2023-05-24T02:40:07;13.50;99.90
23089;DHT22;11713;48.506;8.966;2023-05-24T02:42:32;13.50;99.90
23089;DHT22;11713;48.506;8.966;2023-05-24T02:44:59;13.40;99.90
23089;DHT22;11713;48.506;8.966;2023-05-24T02:47:24;13.40;99.90
23089;DHT22;11713;48.506;8.966;2023-05-24T02:49:54;13.40;99.90
23089;DHT22;11713;48.506;8.966;2023-05-24T02:52:20;13.30;99.90
23089;DHT22;11713;48.506;8.966;2023-05-24T02:54:50;13.30;99.90
23089;DHT22;11713;48.506;8.966;2023-05-24T02:57:18;13.30;99.90
23089;DHT22;11713;48.506;8.966;2023-05-24T02:59:44;13.10;99.90
23089;DHT22;11713;48.506;8.966;2023-05-24T03:02:11;13.10;99.90
23089;DHT22;11713;48.506;8.966;2023-05-24T03:04:40;13.10;99.90
23089;DHT22;11713;48.506;8.966;2023-05-24T03:07:09;13.10;99.90
23089;DHT22;11713;48.506;8.966;2023-05-24T03:09:35;13.00;99.90
23089;DHT22;11713;48.506;8.966;2023-05-24T03:12:01;12.90;99.90
23089;DHT22;11713;48.506;8.966;2023-05-24T03:14:28;13.00;99.90
23089;DHT22;11713;48.506;8.966;2023-05-24T03:16:54;13.00;99.90
23089;DHT22;11713;48.506;8.966;2023-05-24T03:19:21;13.00;99.90
23089;DHT22;11713;48.506;8.966;2023-05-24T03:21:47;13.00;99.90
23089;DHT22;11713;48.506;8.966;2023-05-24T03:24:13;12.90;99.90
23089;DHT22;11713;48.506;8.966;2023-05-24T03:26:39;12.80;99.90
23089;DHT22;11713;48.506;8.966;2023-05-24T03:29:05;12.90;99.90
23089;DHT22;11713;48.506;8.966;2023-05-24T03:31:35;12.80;99.90
23089;DHT22;11713;48.506;8.966;2023-05-24T03:34:01;12.80;99.90
23089;DHT22;11713;48.506;8.966;2023-05-24T03:36:28;12.80;99.90
23089;DHT22;11713;48.506;8.966;2023-05-24T03:38:54;12.80;99.90
23089;DHT22;11713;48.506;8.966;2023-05-24T03:41:23;12.70;99.90
23089;DHT22;11713;48.506;8.966;2023-05-24T03:43:51;12.70;99.90
23089;DHT22;11713;48.506;8.966;2023-05-24T03:46:18;12.80;99.90
23089;DHT22;11713;48.506;8.966;2023-05-24T03:48:44;12.80;99.90
23089;DHT22;11713;48.506;8.966;2023-05-24T03:51:13;12.90;99.90
23089;DHT22;11713;48.506;8.966;2023-05-24T03:53:39;12.80;99.90
23089;DHT22;11713;48.506;8.966;2023-05-24T03:56:05;12.80;99.90
23089;DHT22;11713;48.506;8.966;2023-05-24T03:58:31;12.80;99.90
23089;DHT22;11713;48.506;8.966;2023-05-24T04:00:57;12.70;99.90
23089;DHT22;11713;48.506;8.966;2023-05-24T04:03:23;12.80;99.90
23089;DHT22;11713;48.506;8.966;2023-05-24T04:05:54;12.80;99.90
23089;DHT22;11713;48.506;8.966;2023-05-24T04:08:20;12.80;99.90
23089;DHT22;11713;48.506;8.966;2023-05-24T04:10:46;12.90;99.90
23089;DHT22;11713;48.506;8.966;2023-05-24T04:13:12;12.90;99.90
23089;DHT22;11713;48.506;8.966;2023-05-24T04:15:38;13.00;99.90
23089;DHT22;11713;48.506;8.966;2023-05-24T04:18:04;13.00;99.90
23089;DHT22;11713;48.506;8.966;2023-05-24T04:20:34;12.90;99.90
23089;DHT22;11713;48.506;8.966;2023-05-24T04:23:01;12.90;99.90
23089;DHT22;11713;48.506;8.966;2023-05-24T04:25:28;12.90;99.90
23089;DHT22;11713;48.506;8.966;2023-05-24T04:27:54;13.00;99.90
23089;DHT22;11713;48.506;8.966;2023-05-24T04:30:23;12.90;99.90
23089;DHT22;11713;48.506;8.966;2023-05-24T04:32:49;12.90;99.90
23089;DHT22;11713;48.506;8.966;2023-05-24T04:35:16;12.90;99.90
23089;DHT22;11713;48.506;8.966;2023-05-24T04:37:42;12.90;99.90
23089;DHT22;11713;48.506;8.966;2023-05-24T04:40:09;13.00;99.90
23089;DHT22;11713;48.506;8.966;2023-05-24T04:42:35;12.90;99.90
23089;DHT22;11713;48.506;8.966;2023-05-24T04:45:01;13.00;99.90
23089;DHT22;11713;48.506;8.966;2023-05-24T04:47:27;12.90;99.90
23089;DHT22;11713;48.506;8.966;2023-05-24T04:49:53;13.00;99.90
23089;DHT22;11713;48.506;8.966;2023-05-24T04:52:20;13.00;99.90
23089;DHT22;11713;48.506;8.966;2023-05-24T04:54:47;12.90;99.90
23089;DHT22;11713;48.506;8.966;2023-05-24T04:57:14;12.90;99.90
23089;DHT22;11713;48.506;8.966;2023-05-24T04:59:40;12.80;99.90
23089;DHT22;11713;48.506;8.966;2023-05-24T05:02:05;12.90;99.90
23089;DHT22;11713;48.506;8.966;2023-05-24T05:04:31;12.80;99.90
23089;DHT22;11713;48.506;8.966;2023-05-24T05:06:57;12.90;99.90
23089;DHT22;11713;48.506;8.966;2023-05-24T05:09:23;12.90;99.90
23089;DHT22;11713;48.506;8.966;2023-05-24T05:11:49;12.80;99.90
23089;DHT22;11713;48.506;8.966;2023-05-24T05:14:15;12.80;99.90
23089;DHT22;11713;48.506;8.966;2023-05-24T05:16:41;12.90;99.90
23089;DHT22;11713;48.506;8.966;2023-05-24T05:19:07;12.80;99.90
23089;DHT22;11713;48.506;8.966;2023-05-24T05:21:33;12.70;99.90
23089;DHT22;11713;48.506;8.966;2023-05-24T05:24:01;12.70;99.90
23089;DHT22;11713;48.506;8.966;2023-05-24T05:26:28;12.70;99.90
23089;DHT22;11713;48.506;8.966;2023-05-24T05:28:54;12.70;99.90
23089;DHT22;11713;48.506;8.966;2023-05-24T05:31:22;12.80;99.90
23089;DHT22;11713;48.506;8.966;2023-05-24T05:33:49;12.70;99.90
23089;DHT22;11713;48.506;8.966;2023-05-24T05:36:15;12.70;99.90
23089;DHT22;11713;48.506;8.966;2023-05-24T05:38:41;12.70;99.90
23089;DHT22;11713;48.506;8.966;2023-05-24T05:41:08;12.70;99.90
23089;DHT22;11713;48.506;8.966;2023-05-24T05:43:34;12.70;99.90
23089;DHT22;11713;48.506;8.966;2023-05-24T05:46:00;12.80;99.90
23089;DHT22;11713;48.506;8.966;2023-05-24T05:48:26;12.80;99.90
23089;DHT22;11713;48.506;8.966;2023-05-24T05:50:52;12.90;99.90
23089;DHT22;11713;48.506;8.966;2023-05-24T05:53:17;12.80;99.90
23089;DHT22;11713;48.506;8.966;2023-05-24T05:55:43;12.90;99.90
23089;DHT22;11713;48.506;8.966;2023-05-24T05:58:09;12.90;99.90
23089;DHT22;11713;48.506;8.966;2023-05-24T06:00:36;12.90;99.90
23089;DHT22;11713;48.506;8.966;2023-05-24T06:03:02;13.00;99.90
23089;DHT22;11713;48.506;8.966;2023-05-24T06:05:28;12.90;99.90
23089;DHT22;11713;48.506;8.966;2023-05-24T06:07:54;12.90;99.90
23089;DHT22;11713;48.506;8.966;2023-05-24T06:10:20;12.90;99.90
23089;DHT22;11713;48.506;8.966;2023-05-24T06:12:46;12.90;99.90
23089;DHT22;11713;48.506;8.966;2023-05-24T06:15:12;12.90;99.90
23089;DHT22;11713;48.506;8.966;2023-05-24T06:17:38;12.90;99.90
23089;DHT22;11713;48.506;8.966;2023-05-24T06:20:06;12.80;99.90
23089;DHT22;11713;48.506;8.966;2023-05-24T06:22:38;12.80;99.90
23089;DHT22;11713;48.506;8.966;2023-05-24T06:25:04;12.80;99.90
23089;DHT22;11713;48.506;8.966;2023-05-24T06:27:31;12.90;99.90
23089;DHT22;11713;48.506;8.966;2023-05-24T06:29:56;13.00;99.90
23089;DHT22;11713;48.506;8.966;2023-05-24T06:32:22;13.00;99.90
23089;DHT22;11713;48.506;8.966;2023-05-24T06:34:48;13.00;99.90
23089;DHT22;11713;48.506;8.966;2023-05-24T06:37:15;13.10;99.90
23089;DHT22;11713;48.506;8.966;2023-05-24T06:39:41;13.20;99.90
23089;DHT22;11713;48.506;8.966;2023-05-24T06:42:07;13.20;99.90
23089;DHT22;11713;48.506;8.966;2023-05-24T06:44:36;13.10;99.90
23089;DHT22;11713;48.506;8.966;2023-05-24T06:47:02;13.00;99.90
23089;DHT22;11713;48.506;8.966;2023-05-24T06:49:30;13.00;99.90
23089;DHT22;11713;48.506;8.966;2023-05-24T06:51:56;13.10;99.90
23089;DHT22;11713;48.506;8.966;2023-05-24T06:54:21;13.10;99.90
23089;DHT22;11713;48.506;8.966;2023-05-24T06:56:47;13.30;99.90
23089;DHT22;11713;48.506;8.966;2023-05-24T06:59:13;13.40;99.90
23089;DHT22;11713;48.506;8.966;2023-05-24T07:01:39;13.40;99.90
23089;DHT22;11713;48.506;8.966;2023-05-24T07:04:10;13.50;99.90
23089;DHT22;11713;48.506;8.966;2023-05-24T07:06:36;13.60;99.90
23089;DHT22;11713;48.506;8.966;2023-05-24T07:09:03;13.70;99.90
23089;DHT22;11713;48.506;8.966;2023-05-24T07:11:29;13.70;99.90
23089;DHT22;11713;48.506;8.966;2023-05-24T07:13:56;13.90;99.90
23089;DHT22;11713;48.506;8.966;2023-05-24T07:16:22;13.90;99.90
23089;DHT22;11713;48.506;8.966;2023-05-24T07:18:48;14.00;99.90
23089;DHT22;11713;48.506;8.966;2023-05-24T07:21:13;14.00;99.90
23089;DHT22;11713;48.506;8.966;2023-05-24T07:23:39;13.90;99.90
23089;DHT22;11713;48.506;8.966;2023-05-24T07:26:05;13.90;99.90
23089;DHT22;11713;48.506;8.966;2023-05-24T07:28:31;13.90;99.90
23089;DHT22;11713;48.506;8.966;2023-05-24T07:30:57;13.80;99.90
23089;DHT22;11713;48.506;8.966;2023-05-24T07:33:22;13.80;99.90
23089;DHT22;11713;48.506;8.966;2023-05-24T07:35:48;13.90;99.90
23089;DHT22;11713;48.506;8.966;2023-05-24T07:38:17;13.80;99.90
23089;DHT22;11713;48.506;8.966;2023-05-24T07:40:43;13.90;99.90
23089;DHT22;11713;48.506;8.966;2023-05-24T07:43:09;13.90;99.90
23089;DHT22;11713;48.506;8.966;2023-05-24T07:45:34;13.90;99.90
23089;DHT22;11713;48.506;8.966;2023-05-24T07:48:00;13.80;99.90
23089;DHT22;11713;48.506;8.966;2023-05-24T07:50:26;13.80;99.90
23089;DHT22;11713;48.506;8.966;2023-05-24T07:52:55;13.90;99.90
23089;DHT22;11713;48.506;8.966;2023-05-24T07:55:21;14.00;99.90
23089;DHT22;11713;48.506;8.966;2023-05-24T07:57:47;14.10;99.90
23089;DHT22;11713;48.506;8.966;2023-05-24T08:00:14;14.30;99.90
23089;DHT22;11713;48.506;8.966;2023-05-24T08:02:43;14.30;99.90
23089;DHT22;11713;48.506;8.966;2023-05-24T08:05:14;14.20;99.90
23089;DHT22;11713;48.506;8.966;2023-05-24T08:07:41;14.20;99.90
23089;DHT22;11713;48.506;8.966;2023-05-24T08:10:08;14.20;99.90
23089;DHT22;11713;48.506;8.966;2023-05-24T08:12:37;14.10;99.90
23089;DHT22;11713;48.506;8.966;2023-05-24T08:15:03;14.00;99.90
23089;DHT22;11713;48.506;8.966;2023-05-24T08:17:30;13.90;99.90
23089;DHT22;11713;48.506;8.966;2023-05-24T08:19:57;13.90;99.90
23089;DHT22;11713;48.506;8.966;2023-05-24T08:22:23;14.00;99.90
23089;DHT22;11713;48.506;8.966;2023-05-24T08:24:49;14.00;99.90
23089;DHT22;11713;48.506;8.966;2023-05-24T08:27:16;14.10;99.90
23089;DHT22;11713;48.506;8.966;2023-05-24T08:29:42;14.20;99.90
23089;DHT22;11713;48.506;8.966;2023-05-24T08:32:08;14.20;99.90
23089;DHT22;11713;48.506;8.966;2023-05-24T08:34:35;13.90;99.90
23089;DHT22;11713;48.506;8.966;2023-05-24T08:37:02;13.80;99.90
23089;DHT22;11713;48.506;8.966;2023-05-24T08:39:29;13.60;99.90
23089;DHT22;11713;48.506;8.966;2023-05-24T08:41:57;13.70;99.90
23089;DHT22;11713;48.506;8.966;2023-05-24T08:44:24;13.70;99.90
23089;DHT22;11713;48.506;8.966;2023-05-24T08:46:51;13.70;99.90
23089;DHT22;11713;48.506;8.966;2023-05-24T08:49:19;13.60;99.90
23089;DHT22;11713;48.506;8.966;2023-05-24T08:51:46;13.60;99.90
23089;DHT22;11713;48.506;8.966;2023-05-24T08:54:12;13.60;99.90
23089;DHT22;11713;48.506;8.966;2023-05-24T08:56:39;13.60;99.90
23089;DHT22;11713;48.506;8.966;2023-05-24T08:59:07;13.60;99.90
23089;DHT22;11713;48.506;8.966;2023-05-24T09:01:33;13.60;99.90
23089;DHT22;11713;48.506;8.966;2023-05-24T09:04:03;13.70;99.90
23089;DHT22;11713;48.506;8.966;2023-05-24T09:06:30;13.80;99.90
23089;DHT22;11713;48.506;8.966;2023-05-24T09:08:59;13.90;99.90
23089;DHT22;11713;48.506;8.966;2023-05-24T09:11:26;14.00;99.90
23089;DHT22;11713;48.506;8.966;2023-05-24T09:13:54;14.10;99.90
23089;DHT22;11713;48.506;8.966;2023-05-24T09:16:20;14.20;99.90
23089;DHT22;11713;48.506;8.966;2023-05-24T09:18:46;14.30;99.90
23089;DHT22;11713;48.506;8.966;2023-05-24T09:21:12;14.40;99.90
23089;DHT22;11713;48.506;8.966;2023-05-24T09:23:40;14.40;99.90
23089;DHT22;11713;48.506;8.966;2023-05-24T09:26:09;14.60;99.90
23089;DHT22;11713;48.506;8.966;2023-05-24T09:28:36;14.70;99.90
23089;DHT22;11713;48.506;8.966;2023-05-24T09:31:02;14.70;99.90
23089;DHT22;11713;48.506;8.966;2023-05-24T09:33:30;14.80;99.90
23089;DHT22;11713;48.506;8.966;2023-05-24T09:35:58;14.80;99.90
23089;DHT22;11713;48.506;8.966;2023-05-24T09:38:24;14.80;99.90
23089;DHT22;11713;48.506;8.966;2023-05-24T09:41:02;14.90;99.90
23089;DHT22;11713;48.506;8.966;2023-05-24T09:43:30;15.00;99.90
23089;DHT22;11713;48.506;8.966;2023-05-24T09:45:57;15.10;99.90
23089;DHT22;11713;48.506;8.966;2023-05-24T09:48:24;15.10;99.90
23089;DHT22;11713;48.506;8.966;2023-05-24T09:51:05;15.10;99.90
23089;DHT22;11713;48.506;8.966;2023-05-24T09:53:35;15.00;99.90
23089;DHT22;11713;48.506;8.966;2023-05-24T09:56:05;14.90;99.90
23089;DHT22;11713;48.506;8.966;2023-05-24T09:58:33;15.10;99.90
23089;DHT22;11713;48.506;8.966;2023-05-24T10:01:06;14.90;99.90
23089;DHT22;11713;48.506;8.966;2023-05-24T10:03:33;14.90;99.90
23089;DHT22;11713;48.506;8.966;2023-05-24T10:05:59;14.90;99.90
23089;DHT22;11713;48.506;8.966;2023-05-24T10:08:26;14.80;99.90
23089;DHT22;11713;48.506;8.966;2023-05-24T10:10:53;14.90;99.90
23089;DHT22;11713;48.506;8.966;2023-05-24T10:13:21;14.90;99.90
23089;DHT22;11713;48.506;8.966;2023-05-24T10:15:47;14.80;99.90
23089;DHT22;11713;48.506;8.966;2023-05-24T10:18:13;14.60;99.90
23089;DHT22;11713;48.506;8.966;2023-05-24T10:20:39;14.60;99.90
23089;DHT22;11713;48.506;8.966;2023-05-24T10:23:08;14.60;99.90
23089;DHT22;11713;48.506;8.966;2023-05-24T10:25:39;14.70;99.90
23089;DHT22;11713;48.506;8.966;2023-05-24T10:28:11;14.80;99.90
23089;DHT22;11713;48.506;8.966;2023-05-24T10:33:20;14.80;99.90
23089;DHT22;11713;48.506;8.966;2023-05-24T10:35:48;14.80;99.90
23089;DHT22;11713;48.506;8.966;2023-05-24T10:38:14;14.80;99.90
23089;DHT22;11713;48.506;8.966;2023-05-24T10:40:43;14.70;99.90
23089;DHT22;11713;48.506;8.966;2023-05-24T10:43:09;14.70;99.90
23089;DHT22;11713;48.506;8.966;2023-05-24T10:45:39;14.70;99.90
23089;DHT22;11713;48.506;8.966;2023-05-24T10:48:30;14.80;99.90
23089;DHT22;11713;48.506;8.966;2023-05-24T10:50:54;14.60;99.90
23089;DHT22;11713;48.506;8.966;2023-05-24T10:53:23;14.70;99.90
23089;DHT22;11713;48.506;8.966;2023-05-24T10:56:01;14.70;99.90
23089;DHT22;11713;48.506;8.966;2023-05-24T11:01:13;14.80;99.90
23089;DHT22;11713;48.506;8.966;2023-05-24T11:03:43;14.90;99.90
23089;DHT22;11713;48.506;8.966;2023-05-24T11:06:09;14.90;99.90
23089;DHT22;11713;48.506;8.966;2023-05-24T11:08:38;14.90;99.90
23089;DHT22;11713;48.506;8.966;2023-05-24T11:11:14;14.90;99.90
23089;DHT22;11713;48.506;8.966;2023-05-24T11:13:46;14.60;99.90
23089;DHT22;11713;48.506;8.966;2023-05-24T11:16:32;14.40;99.90
23089;DHT22;11713;48.506;8.966;2023-05-24T11:19:19;14.20;99.90
23089;DHT22;11713;48.506;8.966;2023-05-24T11:21:50;14.20;99.90
23089;DHT22;11713;48.506;8.966;2023-05-24T11:24:18;14.20;99.90
23089;DHT22;11713;48.506;8.966;2023-05-24T11:26:45;13.90;99.90
23089;DHT22;11713;48.506;8.966;2023-05-24T11:29:14;13.80;99.90
23089;DHT22;11713;48.506;8.966;2023-05-24T11:31:57;13.70;99.90
23089;DHT22;11713;48.506;8.966;2023-05-24T11:34:26;13.50;99.90
23089;DHT22;11713;48.506;8.966;2023-05-24T11:36:52;13.70;99.90
23089;DHT22;11713;48.506;8.966;2023-05-24T11:39:19;13.60;99.90
23089;DHT22;11713;48.506;8.966;2023-05-24T11:41:46;13.30;99.90
23089;DHT22;11713;48.506;8.966;2023-05-24T11:44:16;13.40;99.90
23089;DHT22;11713;48.506;8.966;2023-05-24T11:46:43;13.30;99.90
23089;DHT22;11713;48.506;8.966;2023-05-24T11:49:12;13.10;99.90
23089;DHT22;11713;48.506;8.966;2023-05-24T11:51:39;13.20;99.90
23089;DHT22;11713;48.506;8.966;2023-05-24T11:54:05;13.20;99.90
23089;DHT22;11713;48.506;8.966;2023-05-24T11:56:31;13.30;99.90
23089;DHT22;11713;48.506;8.966;2023-05-24T12:01:34;13.20;99.90
23089;DHT22;11713;48.506;8.966;2023-05-24T12:04:00;13.20;99.90
23089;DHT22;11713;48.506;8.966;2023-05-24T12:06:39;13.20;99.90
23089;DHT22;11713;48.506;8.966;2023-05-24T12:09:08;13.30;99.90
23089;DHT22;11713;48.506;8.966;2023-05-24T12:11:40;13.40;99.90
23089;DHT22;11713;48.506;8.966;2023-05-24T12:14:13;13.50;99.90
23089;DHT22;11713;48.506;8.966;2023-05-24T12:16:42;13.50;99.90
23089;DHT22;11713;48.506;8.966;2023-05-24T12:19:15;13.50;99.90
23089;DHT22;11713;48.506;8.966;2023-05-24T12:21:41;13.70;99.90
23089;DHT22;11713;48.506;8.966;2023-05-24T12:24:12;13.90;99.90
23089;DHT22;11713;48.506;8.966;2023-05-24T12:26:48;14.20;99.90
23089;DHT22;11713;48.506;8.966;2023-05-24T12:29:16;14.40;99.90
23089;DHT22;11713;48.506;8.966;2023-05-24T12:31:43;14.50;99.90
23089;DHT22;11713;48.506;8.966;2023-05-24T12:34:17;14.80;99.90
23089;DHT22;11713;48.506;8.966;2023-05-24T12:36:43;15.10;99.90
23089;DHT22;11713;48.506;8.966;2023-05-24T12:39:19;15.40;99.90
23089;DHT22;11713;48.506;8.966;2023-05-24T12:41:49;15.70;99.90
23089;DHT22;11713;48.506;8.966;2023-05-24T12:44:15;15.90;99.90
23089;DHT22;11713;48.506;8.966;2023-05-24T12:46:41;16.30;99.90
23089;DHT22;11713;48.506;8.966;2023-05-24T12:49:07;16.70;99.90
23089;DHT22;11713;48.506;8.966;2023-05-24T12:51:34;16.90;99.90
23089;DHT22;11713;48.506;8.966;2023-05-24T12:54:01;17.10;99.90
23089;DHT22;11713;48.506;8.966;2023-05-24T12:56:29;17.10;99.90
23089;DHT22;11713;48.506;8.966;2023-05-24T12:58:55;17.10;99.90
23089;DHT22;11713;48.506;8.966;2023-05-24T13:01:21;17.20;99.90
23089;DHT22;11713;48.506;8.966;2023-05-24T13:03:47;17.40;99.90
23089;DHT22;11713;48.506;8.966;2023-05-24T13:06:13;17.50;99.90
23089;DHT22;11713;48.506;8.966;2023-05-24T13:08:38;17.50;99.90
23089;DHT22;11713;48.506;8.966;2023-05-24T13:11:04;17.60;99.90
23089;DHT22;11713;48.506;8.966;2023-05-24T13:13:30;17.80;99.90
23089;DHT22;11713;48.506;8.966;2023-05-24T13:15:57;18.00;99.90
23089;DHT22;11713;48.506;8.966;2023-05-24T13:18:23;18.20;99.90
23089;DHT22;11713;48.506;8.966;2023-05-24T13:20:51;18.50;99.90
23089;DHT22;11713;48.506;8.966;2023-05-24T13:23:16;18.80;99.90
23089;DHT22;11713;48.506;8.966;2023-05-24T13:25:42;19.00;99.90
23089;DHT22;11713;48.506;8.966;2023-05-24T13:28:08;19.20;99.90
23089;DHT22;11713;48.506;8.966;2023-05-24T13:30:35;19.40;99.90
23089;DHT22;11713;48.506;8.966;2023-05-24T13:33:01;19.70;99.90
23089;DHT22;11713;48.506;8.966;2023-05-24T13:35:28;19.80;99.90
23089;DHT22;11713;48.506;8.966;2023-05-24T13:37:54;19.90;99.90
23089;DHT22;11713;48.506;8.966;2023-05-24T13:40:22;20.00;99.90
23089;DHT22;11713;48.506;8.966;2023-05-24T13:42:50;20.20;99.90
23089;DHT22;11713;48.506;8.966;2023-05-24T13:45:16;20.30;99.90
23089;DHT22;11713;48.506;8.966;2023-05-24T13:47:42;20.40;99.90
23089;DHT22;11713;48.506;8.966;2023-05-24T13:50:08;20.30;99.90
23089;DHT22;11713;48.506;8.966;2023-05-24T13:52:35;20.60;99.90
23089;DHT22;11713;48.506;8.966;2023-05-24T13:55:02;20.30;99.90
23089;DHT22;11713;48.506;8.966;2023-05-24T13:57:29;20.40;99.90
23089;DHT22;11713;48.506;8.966;2023-05-24T13:59:56;20.60;99.90
23089;DHT22;11713;48.506;8.966;2023-05-24T14:02:22;20.40;99.90
23089;DHT22;11713;48.506;8.966;2023-05-24T14:04:48;20.50;99.90
23089;DHT22;11713;48.506;8.966;2023-05-24T14:07:13;20.70;99.90
23089;DHT22;11713;48.506;8.966;2023-05-24T14:09:40;20.50;99.90
23089;DHT22;11713;48.506;8.966;2023-05-24T14:12:06;20.20;99.90
23089;DHT22;11713;48.506;8.966;2023-05-24T14:14:33;19.90;99.90
23089;DHT22;11713;48.506;8.966;2023-05-24T14:16:59;19.80;99.90
23089;DHT22;11713;48.506;8.966;2023-05-24T14:19:25;19.70;99.90
23089;DHT22;11713;48.506;8.966;2023-05-24T14:21:51;19.60;99.90
23089;DHT22;11713;48.506;8.966;2023-05-24T14:24:16;19.20;99.90
23089;DHT22;11713;48.506;8.966;2023-05-24T14:26:42;19.40;99.90
23089;DHT22;11713;48.506;8.966;2023-05-24T14:29:08;19.20;99.90
23089;DHT22;11713;48.506;8.966;2023-05-24T14:31:35;19.40;99.90
23089;DHT22;11713;48.506;8.966;2023-05-24T14:34:07;19.60;99.90
23089;DHT22;11713;48.506;8.966;2023-05-24T14:36:34;20.00;99.90
23089;DHT22;11713;48.506;8.966;2023-05-24T14:39:01;20.10;99.90
23089;DHT22;11713;48.506;8.966;2023-05-24T14:41:29;20.10;99.90
23089;DHT22;11713;48.506;8.966;2023-05-24T14:43:56;20.10;99.90
23089;DHT22;11713;48.506;8.966;2023-05-24T14:46:22;20.00;99.90
23089;DHT22;11713;48.506;8.966;2023-05-24T14:48:48;20.10;99.90
23089;DHT22;11713;48.506;8.966;2023-05-24T14:51:14;20.40;99.90
23089;DHT22;11713;48.506;8.966;2023-05-24T14:53:40;20.40;99.90
23089;DHT22;11713;48.506;8.966;2023-05-24T14:56:06;20.40;99.90
23089;DHT22;11713;48.506;8.966;2023-05-24T14:58:34;20.40;99.90
23089;DHT22;11713;48.506;8.966;2023-05-24T15:01:01;20.40;99.90
23089;DHT22;11713;48.506;8.966;2023-05-24T15:03:27;20.50;99.90
23089;DHT22;11713;48.506;8.966;2023-05-24T15:05:52;20.60;99.90
23089;DHT22;11713;48.506;8.966;2023-05-24T15:08:18;20.70;99.90
23089;DHT22;11713;48.506;8.966;2023-05-24T15:10:44;20.70;99.90
23089;DHT22;11713;48.506;8.966;2023-05-24T15:13:11;20.80;99.90
23089;DHT22;11713;48.506;8.966;2023-05-24T15:15:37;20.60;99.90
23089;DHT22;11713;48.506;8.966;2023-05-24T15:18:03;20.40;99.90
23089;DHT22;11713;48.506;8.966;2023-05-24T15:20:29;20.40;99.90
23089;DHT22;11713;48.506;8.966;2023-05-24T15:22:54;20.20;99.90
23089;DHT22;11713;48.506;8.966;2023-05-24T15:25:21;19.90;99.90
23089;DHT22;11713;48.506;8.966;2023-05-24T15:27:47;19.80;99.90
23089;DHT22;11713;48.506;8.966;2023-05-24T15:30:13;19.90;99.90
23089;DHT22;11713;48.506;8.966;2023-05-24T15:32:39;20.00;99.90
23089;DHT22;11713;48.506;8.966;2023-05-24T15:35:06;20.10;99.90
23089;DHT22;11713;48.506;8.966;2023-05-24T15:37:32;20.00;99.90
23089;DHT22;11713;48.506;8.966;2023-05-24T15:39:58;19.80;99.90
23089;DHT22;11713;48.506;8.966;2023-05-24T15:42:24;19.90;99.90
23089;DHT22;11713;48.506;8.966;2023-05-24T15:44:50;19.80;99.90
23089;DHT22;11713;48.506;8.966;2023-05-24T15:47:16;19.70;99.90
23089;DHT22;11713;48.506;8.966;2023-05-24T15:49:41;19.70;99.90